This is the latest recevied weather packets stored in our database for station/object DL4ABR-6. If no packets are shown the sender has not sent any weather packets the latest 10 day(s).
| Time | Temp. | Humidity | Pressure | Rain* | Wind** | Luminosity | Snow |
|---|---|---|---|---|---|---|---|
| 1777442775 | 5° C | 70% | 1025.1 hPa | 0 mm | - | - | - |
| 1777442020 | 4.44° C | 74% | 1024.7 hPa | 0 mm | - | - | - |
| 1777441150 | 2.22° C | 85% | 1024.6 hPa | 0 mm | - | - | - |
| 1777440384 | 1.67° C | 90% | 1024.7 hPa | 0 mm | - | - | - |
| 1777439580 | 0.56° C | 91% | 1024.4 hPa | 0 mm | - | - | - |
| 1777438815 | 0° C | 91% | 1024.5 hPa | 0 mm | - | - | - |
| 1777438015 | 0° C | 90% | 1024.2 hPa | 0 mm | - | - | - |
| 1777437275 | -0.56° C | 90% | 1024.1 hPa | 0 mm | - | - | - |
| 1777435750 | 0° C | 90% | 1023.9 hPa | 0 mm | - | - | - |
| 1777434848 | -0.56° C | 90% | 1024 hPa | 0 mm | - | - | - |
| 1777433355 | 0° C | 89% | 1023.8 hPa | 0 mm | - | - | - |
| 1777428403 | 1.67° C | 87% | 1023.5 hPa | 0 mm | - | - | - |
| 1777410625 | 6.67° C | 63% | 1022.6 hPa | 0 mm | - | - | - |
| 1777407295 | 7.78° C | 60% | 1022.1 hPa | 0 mm | - | - | - |
| 1777406485 | 8.33° C | 59% | 1022.1 hPa | 0 mm | - | - | - |
| 1777404920 | 8.89° C | 57% | 1021.6 hPa | 0 mm | - | - | - |
| 1777399421 | 13.33° C | 41% | 1021.3 hPa | 0 mm | - | - | - |
| 1777396260 | 15.56° C | 37% | 1020.5 hPa | 0 mm | - | - | - |
| 1777395443 | 16.11° C | 35% | 1020.5 hPa | 0 mm | - | - | - |
| 1777394663 | 16.67° C | 35% | 1020.7 hPa | 0 mm | - | - | - |
| 1777392265 | 17.22° C | 35% | 1020.4 hPa | 0 mm | - | - | - |
| 1777391452 | 16.67° C | 35% | 1020.7 hPa | 0 mm | - | - | - |
| 1777390600 | 16.67° C | 34% | 1020.6 hPa | 0 mm | - | - | - |
| 1777389875 | 17.78° C | 32% | 1020.7 hPa | 0 mm | - | - | - |
| 1777387475 | 17.22° C | 31% | 1020.8 hPa | 0 mm | - | - | - |
* Rain since midnight (hover to see other rain measurements)
** Current wind speed in m/s (hover to see current wind gust speed)